Terminal Aerodrome Forecast
Issued by NWS

Home | Current Version | Previous Version | Text Only | Print | Product List | Glossary Off
Versions: 1 2 3 4 5 6 7 8 9 10 11 12 13 14 15 16 17 18 19

000
FTUS42 KMHX 240850 AAA
TAFISO
TAF AMD
KISO 240850Z 2409/2506 06009KT 6SM -SHRA OVC004
      TEMPO 2409/2411 2SM -SHRA OVC002
     FM241200 06008KT 5SM -SHRA OVC007
     FM241500 07010G15KT 5SM -SHRA SCT007 OVC010
     FM241800 09012G20KT 5SM -SHRA SCT025 OVC030
     FM250100 08012G20KT 2SM +SHRA VCTS SCT007 OVC025CB
      AMD LTD TO CLD VIS AND WIND=

USA.gov is the U.S. government's official web portal to all federal, state and local government web resources and services.